sensor_id;sensor_type;location;lat;lon;timestamp;temperature;humidity
38464;DHT22;24243;51.956;5.902;2023-09-19T00:00:01;24.70;57.50
38464;DHT22;24243;51.956;5.902;2023-09-19T00:02:26;24.60;57.50
38464;DHT22;24243;51.956;5.902;2023-09-19T00:04:52;24.60;57.50
38464;DHT22;24243;51.956;5.902;2023-09-19T00:07:19;24.60;57.50
38464;DHT22;24243;51.956;5.902;2023-09-19T00:09:44;24.60;57.40
38464;DHT22;24243;51.956;5.902;2023-09-19T00:12:10;24.60;57.40
38464;DHT22;24243;51.956;5.902;2023-09-19T00:14:35;24.70;57.50
38464;DHT22;24243;51.956;5.902;2023-09-19T00:17:02;24.70;57.50
38464;DHT22;24243;51.956;5.902;2023-09-19T00:19:34;24.60;57.40
38464;DHT22;24243;51.956;5.902;2023-09-19T00:21:59;24.60;57.40
38464;DHT22;24243;51.956;5.902;2023-09-19T00:24:26;24.60;57.40
38464;DHT22;24243;51.956;5.902;2023-09-19T00:26:53;24.60;57.40
38464;DHT22;24243;51.956;5.902;2023-09-19T00:29:21;24.60;57.40
38464;DHT22;24243;51.956;5.902;2023-09-19T00:31:46;24.60;57.30
38464;DHT22;24243;51.956;5.902;2023-09-19T00:34:12;24.60;57.30
38464;DHT22;24243;51.956;5.902;2023-09-19T00:36:38;24.60;57.30
38464;DHT22;24243;51.956;5.902;2023-09-19T00:39:08;24.60;57.30
38464;DHT22;24243;51.956;5.902;2023-09-19T00:41:34;24.60;57.30
38464;DHT22;24243;51.956;5.902;2023-09-19T00:44:03;24.60;57.30
38464;DHT22;24243;51.956;5.902;2023-09-19T00:46:30;24.60;57.30
38464;DHT22;24243;51.956;5.902;2023-09-19T00:48:56;24.60;57.30
38464;DHT22;24243;51.956;5.902;2023-09-19T00:51:22;24.60;57.30
38464;DHT22;24243;51.956;5.902;2023-09-19T00:53:48;24.60;57.30
38464;DHT22;24243;51.956;5.902;2023-09-19T00:56:14;24.60;57.30
38464;DHT22;24243;51.956;5.902;2023-09-19T00:58:44;24.60;57.30
38464;DHT22;24243;51.956;5.902;2023-09-19T01:01:09;24.60;57.30
38464;DHT22;24243;51.956;5.902;2023-09-19T01:03:37;24.60;57.30
38464;DHT22;24243;51.956;5.902;2023-09-19T01:06:02;24.50;57.20
38464;DHT22;24243;51.956;5.902;2023-09-19T01:08:28;24.50;57.20
38464;DHT22;24243;51.956;5.902;2023-09-19T01:10:55;24.50;57.20
38464;DHT22;24243;51.956;5.902;2023-09-19T01:13:28;24.50;57.20
38464;DHT22;24243;51.956;5.902;2023-09-19T01:24:28;24.50;57.20
38464;DHT22;24243;51.956;5.902;2023-09-19T01:26:39;24.50;57.20
38464;DHT22;24243;51.956;5.902;2023-09-19T01:32:01;24.50;57.10
38464;DHT22;24243;51.956;5.902;2023-09-19T01:35:13;24.50;57.20
38464;DHT22;24243;51.956;5.902;2023-09-19T01:37:19;24.50;57.20
38464;DHT22;24243;51.956;5.902;2023-09-19T01:39:50;24.50;57.20
38464;DHT22;24243;51.956;5.902;2023-09-19T01:45:03;24.50;57.10
38464;DHT22;24243;51.956;5.902;2023-09-19T01:47:33;24.50;57.10
38464;DHT22;24243;51.956;5.902;2023-09-19T01:50:07;24.40;57.10
38464;DHT22;24243;51.956;5.902;2023-09-19T01:52:36;24.40;57.10
38464;DHT22;24243;51.956;5.902;2023-09-19T01:55:08;24.40;57.10
38464;DHT22;24243;51.956;5.902;2023-09-19T01:57:35;24.40;57.10
38464;DHT22;24243;51.956;5.902;2023-09-19T02:00:06;24.40;57.10
38464;DHT22;24243;51.956;5.902;2023-09-19T02:02:36;24.40;57.10
38464;DHT22;24243;51.956;5.902;2023-09-19T02:05:03;24.40;57.10
38464;DHT22;24243;51.956;5.902;2023-09-19T02:07:29;24.40;57.00
38464;DHT22;24243;51.956;5.902;2023-09-19T02:09:57;24.40;57.00
38464;DHT22;24243;51.956;5.902;2023-09-19T02:12:24;24.40;57.00
38464;DHT22;24243;51.956;5.902;2023-09-19T02:14:50;24.40;57.00
38464;DHT22;24243;51.956;5.902;2023-09-19T02:17:15;24.40;57.00
38464;DHT22;24243;51.956;5.902;2023-09-19T02:19:42;24.40;57.00
38464;DHT22;24243;51.956;5.902;2023-09-19T02:22:08;24.40;57.00
38464;DHT22;24243;51.956;5.902;2023-09-19T02:24:38;24.40;57.00
38464;DHT22;24243;51.956;5.902;2023-09-19T02:27:04;24.40;57.00
38464;DHT22;24243;51.956;5.902;2023-09-19T02:29:30;24.40;57.00
38464;DHT22;24243;51.956;5.902;2023-09-19T02:31:56;24.40;56.90
38464;DHT22;24243;51.956;5.902;2023-09-19T02:34:22;24.30;56.90
38464;DHT22;24243;51.956;5.902;2023-09-19T02:36:47;24.40;56.90
38464;DHT22;24243;51.956;5.902;2023-09-19T02:39:13;24.30;56.90
38464;DHT22;24243;51.956;5.902;2023-09-19T02:41:39;24.40;56.90
38464;DHT22;24243;51.956;5.902;2023-09-19T02:44:04;24.40;56.90
38464;DHT22;24243;51.956;5.902;2023-09-19T02:46:33;24.30;56.80
38464;DHT22;24243;51.956;5.902;2023-09-19T02:49:01;24.40;56.90
38464;DHT22;24243;51.956;5.902;2023-09-19T02:51:28;24.30;56.80
38464;DHT22;24243;51.956;5.902;2023-09-19T02:53:54;24.30;56.80
38464;DHT22;24243;51.956;5.902;2023-09-19T02:56:20;24.30;56.80
38464;DHT22;24243;51.956;5.902;2023-09-19T02:58:45;24.30;56.80
38464;DHT22;24243;51.956;5.902;2023-09-19T03:01:11;24.30;56.80
38464;DHT22;24243;51.956;5.902;2023-09-19T03:03:37;24.30;56.70
38464;DHT22;24243;51.956;5.902;2023-09-19T03:06:05;24.30;56.70
38464;DHT22;24243;51.956;5.902;2023-09-19T03:08:31;24.30;56.70
38464;DHT22;24243;51.956;5.902;2023-09-19T03:11:01;24.30;56.70
38464;DHT22;24243;51.956;5.902;2023-09-19T03:13:27;24.30;56.70
38464;DHT22;24243;51.956;5.902;2023-09-19T03:15:54;24.30;56.70
38464;DHT22;24243;51.956;5.902;2023-09-19T03:18:21;24.30;56.70
38464;DHT22;24243;51.956;5.902;2023-09-19T03:20:52;24.30;56.70
38464;DHT22;24243;51.956;5.902;2023-09-19T03:23:20;24.30;56.60
38464;DHT22;24243;51.956;5.902;2023-09-19T03:25:45;24.30;56.60
38464;DHT22;24243;51.956;5.902;2023-09-19T03:28:12;24.20;56.60
38464;DHT22;24243;51.956;5.902;2023-09-19T03:30:37;24.30;56.60
38464;DHT22;24243;51.956;5.902;2023-09-19T03:33:04;24.30;56.60
38464;DHT22;24243;51.956;5.902;2023-09-19T03:35:30;24.20;56.50
38464;DHT22;24243;51.956;5.902;2023-09-19T03:37:56;24.20;56.50
38464;DHT22;24243;51.956;5.902;2023-09-19T03:40:22;24.20;56.50
38464;DHT22;24243;51.956;5.902;2023-09-19T03:42:48;24.20;56.50
38464;DHT22;24243;51.956;5.902;2023-09-19T03:45:14;24.20;56.50
38464;DHT22;24243;51.956;5.902;2023-09-19T03:47:39;24.20;56.40
38464;DHT22;24243;51.956;5.902;2023-09-19T03:50:05;24.20;56.40
38464;DHT22;24243;51.956;5.902;2023-09-19T03:52:33;24.20;56.40
38464;DHT22;24243;51.956;5.902;2023-09-19T03:54:59;24.20;56.40
38464;DHT22;24243;51.956;5.902;2023-09-19T03:57:25;24.20;56.40
38464;DHT22;24243;51.956;5.902;2023-09-19T03:59:51;24.20;56.40
38464;DHT22;24243;51.956;5.902;2023-09-19T04:02:19;24.20;56.40
38464;DHT22;24243;51.956;5.902;2023-09-19T04:04:48;24.20;56.30
38464;DHT22;24243;51.956;5.902;2023-09-19T04:07:13;24.20;56.30
38464;DHT22;24243;51.956;5.902;2023-09-19T04:09:39;24.20;56.30
38464;DHT22;24243;51.956;5.902;2023-09-19T04:12:04;24.20;56.30
38464;DHT22;24243;51.956;5.902;2023-09-19T04:14:30;24.20;56.20
38464;DHT22;24243;51.956;5.902;2023-09-19T04:16:56;24.20;56.20
38464;DHT22;24243;51.956;5.902;2023-09-19T04:19:22;24.20;56.20
38464;DHT22;24243;51.956;5.902;2023-09-19T04:21:47;24.10;56.10
38464;DHT22;24243;51.956;5.902;2023-09-19T04:24:13;24.20;56.20
38464;DHT22;24243;51.956;5.902;2023-09-19T04:26:39;24.10;56.10
38464;DHT22;24243;51.956;5.902;2023-09-19T04:29:04;24.20;56.10
38464;DHT22;24243;51.956;5.902;2023-09-19T04:31:31;24.20;56.10
38464;DHT22;24243;51.956;5.902;2023-09-19T04:33:57;24.10;56.00
38464;DHT22;24243;51.956;5.902;2023-09-19T04:36:24;24.20;56.10
38464;DHT22;24243;51.956;5.902;2023-09-19T04:38:50;24.20;56.00
38464;DHT22;24243;51.956;5.902;2023-09-19T04:41:15;24.20;56.00
38464;DHT22;24243;51.956;5.902;2023-09-19T04:43:41;24.20;56.00
38464;DHT22;24243;51.956;5.902;2023-09-19T04:46:07;24.10;56.00
38464;DHT22;24243;51.956;5.902;2023-09-19T04:48:33;24.10;56.00
38464;DHT22;24243;51.956;5.902;2023-09-19T04:51:00;24.10;55.90
38464;DHT22;24243;51.956;5.902;2023-09-19T04:53:25;24.10;55.90
38464;DHT22;24243;51.956;5.902;2023-09-19T04:55:53;24.10;55.90
38464;DHT22;24243;51.956;5.902;2023-09-19T04:58:21;24.10;55.90
38464;DHT22;24243;51.956;5.902;2023-09-19T05:00:47;24.10;55.90
38464;DHT22;24243;51.956;5.902;2023-09-19T05:03:12;24.10;55.90
38464;DHT22;24243;51.956;5.902;2023-09-19T05:05:38;24.10;55.90
38464;DHT22;24243;51.956;5.902;2023-09-19T05:08:05;24.10;55.80
38464;DHT22;24243;51.956;5.902;2023-09-19T05:10:31;24.10;55.80
38464;DHT22;24243;51.956;5.902;2023-09-19T05:12:57;24.10;55.80
38464;DHT22;24243;51.956;5.902;2023-09-19T05:15:22;24.10;55.80
38464;DHT22;24243;51.956;5.902;2023-09-19T05:17:48;24.10;55.80
38464;DHT22;24243;51.956;5.902;2023-09-19T05:20:15;24.00;55.70
38464;DHT22;24243;51.956;5.902;2023-09-19T05:22:50;24.00;55.70
38464;DHT22;24243;51.956;5.902;2023-09-19T05:25:15;24.00;55.60
38464;DHT22;24243;51.956;5.902;2023-09-19T05:27:43;24.00;56.20
38464;DHT22;24243;51.956;5.902;2023-09-19T05:30:09;24.00;55.50
38464;DHT22;24243;51.956;5.902;2023-09-19T05:32:35;24.00;55.50
38464;DHT22;24243;51.956;5.902;2023-09-19T05:35:01;24.00;55.50
38464;DHT22;24243;51.956;5.902;2023-09-19T05:37:26;24.00;55.50
38464;DHT22;24243;51.956;5.902;2023-09-19T05:39:52;24.00;55.50
38464;DHT22;24243;51.956;5.902;2023-09-19T05:42:19;24.00;55.40
38464;DHT22;24243;51.956;5.902;2023-09-19T05:44:44;24.00;55.40
38464;DHT22;24243;51.956;5.902;2023-09-19T05:47:10;24.00;55.40
38464;DHT22;24243;51.956;5.902;2023-09-19T05:49:35;24.00;55.40
38464;DHT22;24243;51.956;5.902;2023-09-19T05:52:07;24.00;55.40
38464;DHT22;24243;51.956;5.902;2023-09-19T05:54:33;24.00;55.40
38464;DHT22;24243;51.956;5.902;2023-09-19T05:57:00;24.00;55.40
38464;DHT22;24243;51.956;5.902;2023-09-19T05:59:25;24.00;55.30
38464;DHT22;24243;51.956;5.902;2023-09-19T06:01:51;24.00;55.30
38464;DHT22;24243;51.956;5.902;2023-09-19T06:04:17;24.00;55.30
38464;DHT22;24243;51.956;5.902;2023-09-19T06:06:44;24.00;55.30
38464;DHT22;24243;51.956;5.902;2023-09-19T06:09:10;24.00;55.30
38464;DHT22;24243;51.956;5.902;2023-09-19T06:11:35;24.00;55.30
38464;DHT22;24243;51.956;5.902;2023-09-19T06:14:02;24.00;55.30
38464;DHT22;24243;51.956;5.902;2023-09-19T06:16:28;23.90;55.20
38464;DHT22;24243;51.956;5.902;2023-09-19T06:18:54;24.00;55.20
38464;DHT22;24243;51.956;5.902;2023-09-19T06:21:24;24.00;55.20
38464;DHT22;24243;51.956;5.902;2023-09-19T06:23:49;24.00;55.20
38464;DHT22;24243;51.956;5.902;2023-09-19T06:26:15;24.00;55.10
38464;DHT22;24243;51.956;5.902;2023-09-19T06:28:40;24.00;55.10
38464;DHT22;24243;51.956;5.902;2023-09-19T06:31:07;24.00;55.10
38464;DHT22;24243;51.956;5.902;2023-09-19T06:33:35;24.00;55.10
38464;DHT22;24243;51.956;5.902;2023-09-19T06:36:04;24.00;55.00
38464;DHT22;24243;51.956;5.902;2023-09-19T06:38:30;24.00;55.00
38464;DHT22;24243;51.956;5.902;2023-09-19T06:40:56;24.00;55.00
38464;DHT22;24243;51.956;5.902;2023-09-19T06:43:22;24.00;54.90
38464;DHT22;24243;51.956;5.902;2023-09-19T06:45:49;24.00;54.90
38464;DHT22;24243;51.956;5.902;2023-09-19T06:48:15;24.00;54.80
38464;DHT22;24243;51.956;5.902;2023-09-19T06:50:42;24.00;54.80
38464;DHT22;24243;51.956;5.902;2023-09-19T06:53:09;24.10;54.80
38464;DHT22;24243;51.956;5.902;2023-09-19T06:55:35;24.10;54.80
38464;DHT22;24243;51.956;5.902;2023-09-19T06:58:02;24.10;54.70
38464;DHT22;24243;51.956;5.902;2023-09-19T07:00:27;24.10;54.70
38464;DHT22;24243;51.956;5.902;2023-09-19T07:02:57;24.10;54.70
38464;DHT22;24243;51.956;5.902;2023-09-19T07:05:24;24.10;54.60
38464;DHT22;24243;51.956;5.902;2023-09-19T07:07:49;24.20;54.60
38464;DHT22;24243;51.956;5.902;2023-09-19T07:10:15;24.20;54.60
38464;DHT22;24243;51.956;5.902;2023-09-19T07:12:41;24.20;54.50
38464;DHT22;24243;51.956;5.902;2023-09-19T07:15:07;24.20;54.50
38464;DHT22;24243;51.956;5.902;2023-09-19T07:17:33;24.20;54.40
38464;DHT22;24243;51.956;5.902;2023-09-19T07:19:59;24.20;54.40
38464;DHT22;24243;51.956;5.902;2023-09-19T07:22:28;24.20;54.40
38464;DHT22;24243;51.956;5.902;2023-09-19T07:24:53;24.20;54.40
38464;DHT22;24243;51.956;5.902;2023-09-19T07:27:19;24.30;54.40
38464;DHT22;24243;51.956;5.902;2023-09-19T07:29:44;24.30;54.30
38464;DHT22;24243;51.956;5.902;2023-09-19T07:32:10;24.30;54.30
38464;DHT22;24243;51.956;5.902;2023-09-19T07:34:37;24.40;54.20
38464;DHT22;24243;51.956;5.902;2023-09-19T07:37:04;24.40;54.20
38464;DHT22;24243;51.956;5.902;2023-09-19T07:39:29;24.40;54.10
38464;DHT22;24243;51.956;5.902;2023-09-19T07:41:55;24.40;54.00
38464;DHT22;24243;51.956;5.902;2023-09-19T07:44:21;24.50;53.90
38464;DHT22;24243;51.956;5.902;2023-09-19T07:46:50;24.50;53.90
38464;DHT22;24243;51.956;5.902;2023-09-19T07:49:16;24.60;53.90
38464;DHT22;24243;51.956;5.902;2023-09-19T07:51:43;24.60;53.80
38464;DHT22;24243;51.956;5.902;2023-09-19T07:54:12;24.60;53.70
38464;DHT22;24243;51.956;5.902;2023-09-19T07:56:39;24.60;53.70
38464;DHT22;24243;51.956;5.902;2023-09-19T07:59:04;24.70;53.60
38464;DHT22;24243;51.956;5.902;2023-09-19T08:01:30;24.80;53.60
38464;DHT22;24243;51.956;5.902;2023-09-19T08:03:56;24.90;53.50
38464;DHT22;24243;51.956;5.902;2023-09-19T08:06:22;24.90;53.30
38464;DHT22;24243;51.956;5.902;2023-09-19T08:08:50;25.00;53.30
38464;DHT22;24243;51.956;5.902;2023-09-19T08:11:16;25.00;53.20
38464;DHT22;24243;51.956;5.902;2023-09-19T08:13:46;25.00;53.10
38464;DHT22;24243;51.956;5.902;2023-09-19T08:16:16;25.00;53.10
38464;DHT22;24243;51.956;5.902;2023-09-19T08:18:46;25.00;53.20
38464;DHT22;24243;51.956;5.902;2023-09-19T08:21:12;25.00;53.20
38464;DHT22;24243;51.956;5.902;2023-09-19T08:23:38;25.00;53.30
38464;DHT22;24243;51.956;5.902;2023-09-19T08:26:04;25.00;53.30
38464;DHT22;24243;51.956;5.902;2023-09-19T08:28:32;25.00;53.30
38464;DHT22;24243;51.956;5.902;2023-09-19T08:31:05;25.00;53.30
38464;DHT22;24243;51.956;5.902;2023-09-19T08:33:31;25.00;53.20
38464;DHT22;24243;51.956;5.902;2023-09-19T08:35:57;25.00;53.30
38464;DHT22;24243;51.956;5.902;2023-09-19T08:38:23;25.10;53.30
38464;DHT22;24243;51.956;5.902;2023-09-19T08:40:48;25.00;53.30
38464;DHT22;24243;51.956;5.902;2023-09-19T08:43:14;25.00;53.30
38464;DHT22;24243;51.956;5.902;2023-09-19T08:45:40;25.00;53.30
38464;DHT22;24243;51.956;5.902;2023-09-19T08:50:39;25.00;53.00
38464;DHT22;24243;51.956;5.902;2023-09-19T08:53:10;25.00;52.90
38464;DHT22;24243;51.956;5.902;2023-09-19T08:55:36;24.90;52.80
38464;DHT22;24243;51.956;5.902;2023-09-19T08:58:06;24.90;52.70
38464;DHT22;24243;51.956;5.902;2023-09-19T09:00:33;24.90;52.70
38464;DHT22;24243;51.956;5.902;2023-09-19T09:03:00;24.80;52.60
38464;DHT22;24243;51.956;5.902;2023-09-19T09:05:26;24.80;53.10
38464;DHT22;24243;51.956;5.902;2023-09-19T09:07:53;24.80;52.50
38464;DHT22;24243;51.956;5.902;2023-09-19T09:10:20;24.70;52.40
38464;DHT22;24243;51.956;5.902;2023-09-19T09:12:51;24.70;52.40
38464;DHT22;24243;51.956;5.902;2023-09-19T09:15:17;24.60;52.30
38464;DHT22;24243;51.956;5.902;2023-09-19T09:17:46;24.60;52.30
38464;DHT22;24243;51.956;5.902;2023-09-19T09:20:13;24.60;52.30
38464;DHT22;24243;51.956;5.902;2023-09-19T09:22:40;24.60;52.20
38464;DHT22;24243;51.956;5.902;2023-09-19T09:25:15;24.60;52.20
38464;DHT22;24243;51.956;5.902;2023-09-19T09:27:43;24.50;52.20
38464;DHT22;24243;51.956;5.902;2023-09-19T09:30:10;24.50;52.20
38464;DHT22;24243;51.956;5.902;2023-09-19T09:33:07;24.50;52.20
38464;DHT22;24243;51.956;5.902;2023-09-19T09:35:33;24.50;52.10
38464;DHT22;24243;51.956;5.902;2023-09-19T09:38:01;24.50;52.10
38464;DHT22;24243;51.956;5.902;2023-09-19T09:40:45;24.50;52.10
38464;DHT22;24243;51.956;5.902;2023-09-19T09:43:25;24.50;52.10
38464;DHT22;24243;51.956;5.902;2023-09-19T09:46:05;24.50;52.10
38464;DHT22;24243;51.956;5.902;2023-09-19T09:48:35;24.40;52.00
38464;DHT22;24243;51.956;5.902;2023-09-19T09:51:04;24.40;52.00
38464;DHT22;24243;51.956;5.902;2023-09-19T09:53:33;24.40;52.00
38464;DHT22;24243;51.956;5.902;2023-09-19T09:58:35;24.40;51.90
38464;DHT22;24243;51.956;5.902;2023-09-19T10:01:02;24.40;51.80
38464;DHT22;24243;51.956;5.902;2023-09-19T10:03:35;24.40;51.80
38464;DHT22;24243;51.956;5.902;2023-09-19T10:06:05;24.50;51.90
38464;DHT22;24243;51.956;5.902;2023-09-19T10:09:00;24.50;51.80
38464;DHT22;24243;51.956;5.902;2023-09-19T10:11:45;24.40;51.80
38464;DHT22;24243;51.956;5.902;2023-09-19T10:14:13;24.40;51.80
38464;DHT22;24243;51.956;5.902;2023-09-19T10:16:41;24.50;51.80
38464;DHT22;24243;51.956;5.902;2023-09-19T10:19:10;24.50;51.80
38464;DHT22;24243;51.956;5.902;2023-09-19T10:21:41;24.40;51.80
38464;DHT22;24243;51.956;5.902;2023-09-19T10:24:08;24.50;51.80
38464;DHT22;24243;51.956;5.902;2023-09-19T10:26:34;24.40;51.70
38464;DHT22;24243;51.956;5.902;2023-09-19T10:29:01;24.50;51.70
38464;DHT22;24243;51.956;5.902;2023-09-19T10:31:29;24.40;51.70
38464;DHT22;24243;51.956;5.902;2023-09-19T10:33:55;24.50;51.70
38464;DHT22;24243;51.956;5.902;2023-09-19T10:36:22;24.40;51.70
38464;DHT22;24243;51.956;5.902;2023-09-19T10:38:51;24.40;51.70
38464;DHT22;24243;51.956;5.902;2023-09-19T10:41:20;24.40;51.70
38464;DHT22;24243;51.956;5.902;2023-09-19T10:43:48;24.50;51.70
38464;DHT22;24243;51.956;5.902;2023-09-19T10:46:13;24.40;51.60
38464;DHT22;24243;51.956;5.902;2023-09-19T10:48:39;24.50;51.70
38464;DHT22;24243;51.956;5.902;2023-09-19T10:53:41;24.40;51.60
38464;DHT22;24243;51.956;5.902;2023-09-19T10:56:07;24.40;51.60
38464;DHT22;24243;51.956;5.902;2023-09-19T10:58:40;24.40;51.60
38464;DHT22;24243;51.956;5.902;2023-09-19T11:01:10;24.40;51.50
38464;DHT22;24243;51.956;5.902;2023-09-19T11:03:40;24.40;51.50
38464;DHT22;24243;51.956;5.902;2023-09-19T11:06:10;24.40;51.50
38464;DHT22;24243;51.956;5.902;2023-09-19T11:08:55;24.30;51.50
38464;DHT22;24243;51.956;5.902;2023-09-19T11:11:44;24.30;51.50
38464;DHT22;24243;51.956;5.902;2023-09-19T11:14:13;24.30;51.40
38464;DHT22;24243;51.956;5.902;2023-09-19T11:16:39;24.30;51.40
38464;DHT22;24243;51.956;5.902;2023-09-19T11:19:05;24.30;51.40
38464;DHT22;24243;51.956;5.902;2023-09-19T11:24:41;24.20;51.40
38464;DHT22;24243;51.956;5.902;2023-09-19T11:26:48;24.20;51.40
38464;DHT22;24243;51.956;5.902;2023-09-19T11:29:29;24.20;51.40
38464;DHT22;24243;51.956;5.902;2023-09-19T11:31:56;24.20;51.50
38464;DHT22;24243;51.956;5.902;2023-09-19T11:39:39;24.20;51.50
38464;DHT22;24243;51.956;5.902;2023-09-19T11:44:52;24.20;51.40
38464;DHT22;24243;51.956;5.902;2023-09-19T11:47:21;24.10;51.40
38464;DHT22;24243;51.956;5.902;2023-09-19T11:49:48;24.10;51.40
38464;DHT22;24243;51.956;5.902;2023-09-19T11:52:16;24.10;51.40
38464;DHT22;24243;51.956;5.902;2023-09-19T11:54:47;24.10;51.40
38464;DHT22;24243;51.956;5.902;2023-09-19T11:57:22;24.10;51.40
38464;DHT22;24243;51.956;5.902;2023-09-19T11:59:47;24.10;51.40
38464;DHT22;24243;51.956;5.902;2023-09-19T12:02:15;24.10;51.40
38464;DHT22;24243;51.956;5.902;2023-09-19T12:04:46;24.10;51.30
38464;DHT22;24243;51.956;5.902;2023-09-19T12:07:14;24.10;51.40
38464;DHT22;24243;51.956;5.902;2023-09-19T12:09:44;24.10;51.40
38464;DHT22;24243;51.956;5.902;2023-09-19T12:12:22;24.10;51.40
38464;DHT22;24243;51.956;5.902;2023-09-19T12:14:48;24.10;51.30
38464;DHT22;24243;51.956;5.902;2023-09-19T12:17:14;24.10;51.30
38464;DHT22;24243;51.956;5.902;2023-09-19T12:19:49;24.10;51.30
38464;DHT22;24243;51.956;5.902;2023-09-19T12:22:15;24.10;51.30
38464;DHT22;24243;51.956;5.902;2023-09-19T12:24:41;24.10;51.30
38464;DHT22;24243;51.956;5.902;2023-09-19T12:27:09;24.10;51.30
38464;DHT22;24243;51.956;5.902;2023-09-19T12:32:08;24.10;51.30
38464;DHT22;24243;51.956;5.902;2023-09-19T12:34:34;24.20;51.40
38464;DHT22;24243;51.956;5.902;2023-09-19T12:37:04;24.10;51.30
38464;DHT22;24243;51.956;5.902;2023-09-19T12:39:40;24.10;51.30
38464;DHT22;24243;51.956;5.902;2023-09-19T12:42:10;24.20;51.30
38464;DHT22;24243;51.956;5.902;2023-09-19T12:44:37;24.10;51.20
38464;DHT22;24243;51.956;5.902;2023-09-19T12:47:13;24.10;51.20
38464;DHT22;24243;51.956;5.902;2023-09-19T12:52:31;24.10;51.10
38464;DHT22;24243;51.956;5.902;2023-09-19T12:54:59;24.10;51.10
38464;DHT22;24243;51.956;5.902;2023-09-19T12:57:28;24.10;51.10
38464;DHT22;24243;51.956;5.902;2023-09-19T12:59:53;24.10;51.10
38464;DHT22;24243;51.956;5.902;2023-09-19T13:02:20;24.00;51.10
38464;DHT22;24243;51.956;5.902;2023-09-19T13:04:52;24.00;51.10
38464;DHT22;24243;51.956;5.902;2023-09-19T13:10:04;24.00;51.10
38464;DHT22;24243;51.956;5.902;2023-09-19T13:12:39;24.00;51.10
38464;DHT22;24243;51.956;5.902;2023-09-19T13:15:08;24.00;51.10
38464;DHT22;24243;51.956;5.902;2023-09-19T13:17:45;24.00;51.10
38464;DHT22;24243;51.956;5.902;2023-09-19T13:20:21;24.00;51.70
38464;DHT22;24243;51.956;5.902;2023-09-19T13:22:50;23.90;51.00
38464;DHT22;24243;51.956;5.902;2023-09-19T13:25:19;23.90;51.00
38464;DHT22;24243;51.956;5.902;2023-09-19T13:30:11;23.90;51.00
38464;DHT22;24243;51.956;5.902;2023-09-19T13:32:37;23.90;51.10
38464;DHT22;24243;51.956;5.902;2023-09-19T13:35:04;23.90;51.10
38464;DHT22;24243;51.956;5.902;2023-09-19T13:37:30;23.90;51.10
38464;DHT22;24243;51.956;5.902;2023-09-19T13:39:56;23.90;51.10
38464;DHT22;24243;51.956;5.902;2023-09-19T13:42:23;23.90;51.10
38464;DHT22;24243;51.956;5.902;2023-09-19T13:44:50;23.90;51.10
38464;DHT22;24243;51.956;5.902;2023-09-19T13:47:16;23.90;51.10
38464;DHT22;24243;51.956;5.902;2023-09-19T13:49:50;23.90;51.10
38464;DHT22;24243;51.956;5.902;2023-09-19T13:52:18;23.90;51.10
38464;DHT22;24243;51.956;5.902;2023-09-19T13:54:44;23.90;51.10
38464;DHT22;24243;51.956;5.902;2023-09-19T13:57:09;23.90;51.10
38464;DHT22;24243;51.956;5.902;2023-09-19T13:59:35;23.80;51.10
38464;DHT22;24243;51.956;5.902;2023-09-19T14:02:00;23.80;51.10
38464;DHT22;24243;51.956;5.902;2023-09-19T14:04:28;23.80;51.10
38464;DHT22;24243;51.956;5.902;2023-09-19T14:06:54;23.80;51.10
38464;DHT22;24243;51.956;5.902;2023-09-19T14:09:20;23.80;51.10
38464;DHT22;24243;51.956;5.902;2023-09-19T14:11:46;23.80;51.10
38464;DHT22;24243;51.956;5.902;2023-09-19T14:14:13;23.80;51.10
38464;DHT22;24243;51.956;5.902;2023-09-19T14:16:39;23.80;51.20
38464;DHT22;24243;51.956;5.902;2023-09-19T14:19:07;23.80;51.10
38464;DHT22;24243;51.956;5.902;2023-09-19T14:21:33;23.80;51.20
38464;DHT22;24243;51.956;5.902;2023-09-19T14:23:59;23.80;51.20
38464;DHT22;24243;51.956;5.902;2023-09-19T14:26:24;23.80;51.20
38464;DHT22;24243;51.956;5.902;2023-09-19T14:28:50;23.80;51.20
38464;DHT22;24243;51.956;5.902;2023-09-19T14:31:15;23.80;51.20
38464;DHT22;24243;51.956;5.902;2023-09-19T14:33:41;23.80;51.20
38464;DHT22;24243;51.956;5.902;2023-09-19T14:36:07;23.80;51.20
38464;DHT22;24243;51.956;5.902;2023-09-19T14:38:33;23.80;51.20
38464;DHT22;24243;51.956;5.902;2023-09-19T14:41:00;23.80;51.20
38464;DHT22;24243;51.956;5.902;2023-09-19T14:43:26;23.80;51.20
38464;DHT22;24243;51.956;5.902;2023-09-19T14:45:52;23.80;51.20
38464;DHT22;24243;51.956;5.902;2023-09-19T14:48:18;23.80;51.30
38464;DHT22;24243;51.956;5.902;2023-09-19T14:50:43;23.80;51.30
38464;DHT22;24243;51.956;5.902;2023-09-19T14:53:09;23.80;51.30
38464;DHT22;24243;51.956;5.902;2023-09-19T14:55:36;23.80;51.30
38464;DHT22;24243;51.956;5.902;2023-09-19T14:58:06;23.80;51.30
38464;DHT22;24243;51.956;5.902;2023-09-19T15:00:33;23.80;51.30
38464;DHT22;24243;51.956;5.902;2023-09-19T15:03:00;23.80;51.30
38464;DHT22;24243;51.956;5.902;2023-09-19T15:05:27;23.70;51.20
38464;DHT22;24243;51.956;5.902;2023-09-19T15:07:54;23.70;51.20
38464;DHT22;24243;51.956;5.902;2023-09-19T15:10:21;23.70;51.30
38464;DHT22;24243;51.956;5.902;2023-09-19T15:12:47;23.70;51.30
38464;DHT22;24243;51.956;5.902;2023-09-19T15:15:13;23.70;51.30
38464;DHT22;24243;51.956;5.902;2023-09-19T15:17:39;23.70;51.30
38464;DHT22;24243;51.956;5.902;2023-09-19T15:20:05;23.70;51.30
38464;DHT22;24243;51.956;5.902;2023-09-19T15:22:32;23.70;51.30
38464;DHT22;24243;51.956;5.902;2023-09-19T15:24:58;23.70;51.30
38464;DHT22;24243;51.956;5.902;2023-09-19T15:27:24;23.70;51.30
38464;DHT22;24243;51.956;5.902;2023-09-19T15:29:50;23.70;51.30
38464;DHT22;24243;51.956;5.902;2023-09-19T15:32:16;23.70;51.30
38464;DHT22;24243;51.956;5.902;2023-09-19T15:34:41;23.60;51.30
38464;DHT22;24243;51.956;5.902;2023-09-19T15:37:07;23.70;51.40
38464;DHT22;24243;51.956;5.902;2023-09-19T15:39:32;23.60;51.30
38464;DHT22;24243;51.956;5.902;2023-09-19T15:42:02;23.60;51.30
38464;DHT22;24243;51.956;5.902;2023-09-19T15:44:28;23.60;51.30
38464;DHT22;24243;51.956;5.902;2023-09-19T15:46:53;23.60;51.40
38464;DHT22;24243;51.956;5.902;2023-09-19T15:49:19;23.60;51.40
38464;DHT22;24243;51.956;5.902;2023-09-19T15:51:45;23.60;51.40
38464;DHT22;24243;51.956;5.902;2023-09-19T15:54:11;23.60;51.50
38464;DHT22;24243;51.956;5.902;2023-09-19T15:56:40;23.60;51.50
38464;DHT22;24243;51.956;5.902;2023-09-19T15:59:09;23.50;51.50
38464;DHT22;24243;51.956;5.902;2023-09-19T16:01:35;23.60;51.50
38464;DHT22;24243;51.956;5.902;2023-09-19T16:04:00;23.50;51.50
38464;DHT22;24243;51.956;5.902;2023-09-19T16:06:27;23.50;51.50
38464;DHT22;24243;51.956;5.902;2023-09-19T16:08:53;23.60;51.60
38464;DHT22;24243;51.956;5.902;2023-09-19T16:11:21;23.50;51.50
38464;DHT22;24243;51.956;5.902;2023-09-19T16:13:48;23.50;51.50